createdAt,value
2022-12-06T00:01:28.764Z,3.33
2022-12-06T00:03:59.052Z,3.10
2022-12-06T00:06:28.503Z,3.50
2022-12-06T00:08:57.487Z,3.67
2022-12-06T00:11:27.608Z,3.60
2022-12-06T00:13:58.086Z,2.90
2022-12-06T00:16:26.159Z,2.80
2022-12-06T00:18:54.607Z,3.67
2022-12-06T00:21:24.498Z,3.03
2022-12-06T00:23:53.674Z,2.60
2022-12-06T00:26:22.533Z,3.00
2022-12-06T00:28:53.780Z,3.43
2022-12-06T00:31:24.764Z,3.23
2022-12-06T00:33:52.836Z,2.83
2022-12-06T00:36:22.542Z,3.10
2022-12-06T00:38:50.764Z,3.13
2022-12-06T00:41:20.729Z,3.17
2022-12-06T00:43:48.597Z,2.80
2022-12-06T00:46:18.202Z,3.23
2022-12-06T00:48:48.818Z,3.20
2022-12-06T00:51:17.532Z,3.17
2022-12-06T00:53:46.004Z,3.20
2022-12-06T00:56:14.410Z,3.63
2022-12-06T00:58:42.538Z,2.73
2022-12-06T01:01:11.518Z,3.07
2022-12-06T01:03:39.545Z,3.87
2022-12-06T01:06:11.312Z,2.77
2022-12-06T01:08:40.280Z,2.30
2022-12-06T01:11:09.348Z,2.67
2022-12-06T01:13:37.357Z,2.33
2022-12-06T01:16:09.519Z,2.30
2022-12-06T01:18:37.761Z,2.03
2022-12-06T01:21:08.414Z,2.53
2022-12-06T01:23:36.469Z,2.13
2022-12-06T01:26:04.372Z,2.00
2022-12-06T01:28:31.998Z,2.10
2022-12-06T01:30:59.805Z,1.90
2022-12-06T01:33:27.441Z,2.00
2022-12-06T01:35:55.035Z,1.93
2022-12-06T01:38:24.084Z,1.90
2022-12-06T01:40:51.672Z,1.87
2022-12-06T01:43:34.419Z,1.70
2022-12-06T01:46:07.933Z,1.80
2022-12-06T01:48:36.157Z,1.80
2022-12-06T01:51:05.641Z,1.70
2022-12-06T01:53:35.552Z,1.60
2022-12-06T01:56:03.747Z,2.37
2022-12-06T01:58:35.825Z,2.00
2022-12-06T02:01:03.558Z,2.00
2022-12-06T02:03:34.542Z,2.00
2022-12-06T02:06:04.401Z,1.57
2022-12-06T02:08:34.794Z,1.63
2022-12-06T02:11:03.414Z,1.80
2022-12-06T02:13:33.008Z,1.60
2022-12-06T02:16:11.737Z,1.80
2022-12-06T02:18:45.282Z,2.07
2022-12-06T02:21:22.870Z,2.00
2022-12-06T02:24:24.583Z,1.70
2022-12-06T02:27:00.736Z,1.87
2022-12-06T02:30:00.707Z,1.40
2022-12-06T02:32:35.327Z,1.67
2022-12-06T02:35:12.096Z,1.90
2022-12-06T02:37:45.890Z,1.40
2022-12-06T02:40:19.849Z,1.83
2022-12-06T02:42:54.974Z,1.80
2022-12-06T02:45:27.961Z,2.10
2022-12-06T02:48:02.630Z,2.00
2022-12-06T02:50:34.851Z,2.13
2022-12-06T02:53:04.236Z,2.13
2022-12-06T02:55:34.121Z,2.40
2022-12-06T02:58:01.842Z,2.27
2022-12-06T03:00:40.022Z,2.37
2022-12-06T03:03:31.031Z,2.40
2022-12-06T03:06:34.116Z,2.70
2022-12-06T03:09:12.572Z,2.43
2022-12-06T03:11:50.543Z,2.87
2022-12-06T03:14:21.934Z,3.00
2022-12-06T03:16:55.237Z,2.90
2022-12-06T03:19:26.761Z,3.30
2022-12-06T03:22:01.721Z,2.50
2022-12-06T03:24:32.711Z,2.20
2022-12-06T03:27:02.618Z,2.53
2022-12-06T03:29:32.552Z,2.93
2022-12-06T03:32:03.459Z,2.57
2022-12-06T03:34:37.263Z,2.50
2022-12-06T03:37:06.983Z,2.77
2022-12-06T03:39:40.044Z,2.10
2022-12-06T03:42:08.422Z,2.37
2022-12-06T03:44:36.446Z,1.90
2022-12-06T03:47:11.614Z,2.30
2022-12-06T03:49:45.675Z,2.70
2022-12-06T03:52:13.290Z,2.40
2022-12-06T03:54:41.326Z,3.00
2022-12-06T03:57:10.158Z,2.87
2022-12-06T03:59:37.817Z,2.60
2022-12-06T04:02:05.493Z,2.70
2022-12-06T04:04:33.110Z,2.57
2022-12-06T04:07:02.066Z,2.83
2022-12-06T04:09:47.303Z,3.13
2022-12-06T04:12:28.801Z,2.70
2022-12-06T04:14:56.375Z,2.53
2022-12-06T04:17:41.521Z,2.50
2022-12-06T04:20:09.586Z,2.67
2022-12-06T04:22:55.986Z,2.63
2022-12-06T04:25:23.606Z,3.00
2022-12-06T04:28:08.814Z,2.53
2022-12-06T04:30:54.193Z,2.40
2022-12-06T04:33:39.715Z,3.37
2022-12-06T04:36:25.707Z,2.40
2022-12-06T04:38:54.746Z,2.87
2022-12-06T04:41:36.209Z,2.80
2022-12-06T04:44:05.047Z,2.60
2022-12-06T04:46:33.083Z,2.30
2022-12-06T04:49:01.003Z,2.50
2022-12-06T04:51:28.956Z,2.40
2022-12-06T04:53:58.674Z,2.80
2022-12-06T04:56:26.219Z,2.80
2022-12-06T04:58:53.810Z,2.90
2022-12-06T05:01:21.487Z,2.73
2022-12-06T05:03:49.191Z,3.40
2022-12-06T05:06:16.890Z,3.23
2022-12-06T05:08:44.473Z,2.57
2022-12-06T05:11:13.476Z,2.70
2022-12-06T05:13:41.128Z,2.70
2022-12-06T05:16:09.650Z,2.93
2022-12-06T05:18:37.473Z,2.73
2022-12-06T05:21:06.887Z,2.80
2022-12-06T05:23:42.361Z,2.60
2022-12-06T05:26:13.567Z,2.73
2022-12-06T05:28:41.506Z,2.97
2022-12-06T05:31:09.399Z,2.60
2022-12-06T05:33:37.806Z,3.20
2022-12-06T05:36:09.002Z,2.97
2022-12-06T05:38:36.892Z,2.50
2022-12-06T05:41:05.649Z,2.80
2022-12-06T05:43:34.887Z,2.63
2022-12-06T05:46:02.621Z,3.10
2022-12-06T05:48:30.569Z,2.80
2022-12-06T05:50:58.527Z,3.03
2022-12-06T05:53:26.109Z,2.57
2022-12-06T05:55:54.071Z,3.00
2022-12-06T05:58:21.748Z,2.50
2022-12-06T06:00:51.226Z,2.43
2022-12-06T06:03:19.340Z,2.20
2022-12-06T06:05:49.499Z,2.40
2022-12-06T06:08:17.597Z,2.60
2022-12-06T06:10:45.845Z,3.23
2022-12-06T06:13:13.587Z,2.23
2022-12-06T06:15:41.148Z,2.50
2022-12-06T06:18:10.029Z,2.83
2022-12-06T06:20:37.658Z,2.43
2022-12-06T06:23:05.546Z,2.60
2022-12-06T06:25:33.237Z,2.63
2022-12-06T06:28:00.782Z,3.07
2022-12-06T06:30:28.387Z,2.60
2022-12-06T06:32:56.023Z,2.10
2022-12-06T06:35:25.229Z,2.90
2022-12-06T06:37:53.024Z,2.17
2022-12-06T06:40:21.779Z,1.97
2022-12-06T06:42:49.466Z,2.60
2022-12-06T06:45:17.288Z,1.80
2022-12-06T06:47:44.905Z,2.10
2022-12-06T06:50:13.326Z,2.43
2022-12-06T06:52:42.363Z,1.83
2022-12-06T06:55:10.402Z,3.00
2022-12-06T06:57:41.201Z,2.37
2022-12-06T07:00:10.428Z,2.43
2022-12-06T07:02:39.625Z,2.60
2022-12-06T07:05:08.345Z,3.07
2022-12-06T07:07:36.031Z,2.67
2022-12-06T07:10:06.691Z,2.80
2022-12-06T07:12:36.036Z,2.90
2022-12-06T07:15:03.739Z,2.60
2022-12-06T07:17:31.360Z,2.60
2022-12-06T07:19:59.332Z,3.17
2022-12-06T07:22:27.067Z,2.30
2022-12-06T07:24:54.689Z,2.20
2022-12-06T07:27:23.675Z,2.60
2022-12-06T07:29:51.351Z,2.30
2022-12-06T07:32:18.987Z,2.63
2022-12-06T07:34:46.819Z,2.40
2022-12-06T07:37:15.076Z,2.53
2022-12-06T07:39:43.986Z,2.40
2022-12-06T07:42:29.311Z,2.37
2022-12-06T07:45:05.610Z,2.50
2022-12-06T07:47:34.995Z,2.30
2022-12-06T07:50:03.134Z,2.30
2022-12-06T07:52:35.253Z,2.00
2022-12-06T07:55:03.150Z,2.30
2022-12-06T07:57:31.180Z,1.90
2022-12-06T08:00:00.594Z,2.03
2022-12-06T08:02:29.466Z,2.40
2022-12-06T08:04:57.562Z,2.37
2022-12-06T08:07:26.620Z,2.23
2022-12-06T08:09:54.969Z,2.33
2022-12-06T08:12:23.109Z,2.27
2022-12-06T08:14:53.149Z,2.20
2022-12-06T08:17:24.319Z,2.07
2022-12-06T08:19:51.954Z,2.07
2022-12-06T08:22:19.548Z,1.93
2022-12-06T08:24:47.156Z,2.10
2022-12-06T08:27:15.057Z,1.90
2022-12-06T08:29:45.102Z,2.33
2022-12-06T08:32:13.019Z,2.40
2022-12-06T08:34:42.828Z,2.13
2022-12-06T08:37:10.553Z,2.40
2022-12-06T08:39:38.151Z,1.90
2022-12-06T08:42:07.607Z,2.00
2022-12-06T08:44:36.798Z,2.57
2022-12-06T08:47:04.662Z,2.67
2022-12-06T08:49:32.458Z,2.70
2022-12-06T08:52:01.725Z,2.70
2022-12-06T08:54:31.639Z,2.00
2022-12-06T08:56:59.233Z,1.87
2022-12-06T08:59:26.873Z,3.20
2022-12-06T09:01:54.509Z,1.93
2022-12-06T09:04:22.902Z,2.13
2022-12-06T09:06:50.626Z,2.13
2022-12-06T09:09:21.235Z,1.83
2022-12-06T09:11:50.659Z,1.90
2022-12-06T09:14:22.030Z,2.17
2022-12-06T09:16:51.081Z,2.47
2022-12-06T09:19:19.311Z,2.27
2022-12-06T09:21:47.292Z,1.87
2022-12-06T09:24:17.787Z,2.20
2022-12-06T09:26:47.302Z,2.20
2022-12-06T09:29:15.830Z,1.90
2022-12-06T09:31:43.514Z,2.40
2022-12-06T09:34:12.424Z,2.03
2022-12-06T09:36:44.730Z,2.50
2022-12-06T09:39:16.068Z,2.90
2022-12-06T09:42:15.444Z,1.90
2022-12-06T09:45:13.926Z,2.27
2022-12-06T09:47:55.737Z,2.27
2022-12-06T09:50:33.589Z,2.27
2022-12-06T09:53:16.711Z,2.03
2022-12-06T09:56:01.224Z,1.90
2022-12-06T09:58:43.443Z,2.50
2022-12-06T10:01:20.917Z,2.40
2022-12-06T10:04:24.538Z,2.33
2022-12-06T10:07:04.281Z,2.37
2022-12-06T10:09:40.415Z,1.80
2022-12-06T10:12:21.156Z,1.70
2022-12-06T10:15:16.415Z,1.60
2022-12-06T10:18:01.003Z,2.00
2022-12-06T10:20:34.759Z,2.00
2022-12-06T10:23:15.653Z,1.80
2022-12-06T10:25:52.848Z,1.70
2022-12-06T10:28:33.358Z,2.00
2022-12-06T10:31:13.571Z,2.00
2022-12-06T10:33:53.519Z,2.03
2022-12-06T10:36:48.708Z,1.83
2022-12-06T10:39:25.077Z,2.20
2022-12-06T10:42:02.815Z,2.37
2022-12-06T10:44:36.308Z,2.50
2022-12-06T10:47:12.627Z,2.57
2022-12-06T10:49:48.592Z,2.17
2022-12-06T10:52:30.956Z,1.80
2022-12-06T10:55:06.221Z,1.80
2022-12-06T10:57:42.431Z,2.43
2022-12-06T11:00:16.700Z,2.23
2022-12-06T11:02:54.409Z,2.00
2022-12-06T11:05:27.331Z,2.00
2022-12-06T11:08:03.326Z,2.00
2022-12-06T11:10:34.771Z,1.90
2022-12-06T11:13:12.937Z,2.20
2022-12-06T11:15:47.480Z,2.00
2022-12-06T11:18:20.580Z,2.00
2022-12-06T11:20:52.344Z,1.97
2022-12-06T11:23:28.058Z,1.90
2022-12-06T11:26:06.244Z,2.37
2022-12-06T11:28:37.543Z,1.70
2022-12-06T11:31:17.009Z,2.30
2022-12-06T11:33:46.427Z,2.30
2022-12-06T11:36:14.365Z,2.10
2022-12-06T11:38:44.396Z,2.33
2022-12-06T11:41:18.674Z,2.93
2022-12-06T11:43:46.519Z,2.70
2022-12-06T11:46:15.781Z,1.93
2022-12-06T11:48:43.950Z,2.00
2022-12-06T11:51:18.467Z,2.33
2022-12-06T11:54:00.140Z,2.10
2022-12-06T11:56:30.390Z,2.30
2022-12-06T11:59:08.082Z,2.27
2022-12-06T12:01:41.862Z,2.00
2022-12-06T12:04:32.835Z,2.50
2022-12-06T12:07:05.892Z,2.70
2022-12-06T12:09:38.050Z,1.80
2022-12-06T12:12:13.953Z,2.37
2022-12-06T12:14:59.727Z,2.67
2022-12-06T12:17:33.756Z,2.10
2022-12-06T12:20:05.543Z,1.70
2022-12-06T12:22:39.353Z,4.20
2022-12-06T12:25:24.760Z,4.93
2022-12-06T12:27:54.414Z,2.27
2022-12-06T12:30:25.680Z,2.23
2022-12-06T12:33:10.888Z,1.93
2022-12-06T12:35:40.772Z,2.43
2022-12-06T12:38:24.584Z,1.90
2022-12-06T12:40:54.474Z,1.80
2022-12-06T12:43:24.520Z,1.87
2022-12-06T12:46:14.843Z,1.47
2022-12-06T12:48:45.157Z,1.80
2022-12-06T12:51:26.365Z,1.93
2022-12-06T12:53:58.621Z,2.10
2022-12-06T12:56:30.567Z,2.43
2022-12-06T12:58:58.779Z,2.07
2022-12-06T13:01:44.278Z,2.40
2022-12-06T13:04:19.585Z,1.83
2022-12-06T13:06:51.196Z,1.80
2022-12-06T13:09:26.065Z,2.10
2022-12-06T13:11:58.571Z,2.03
2022-12-06T13:14:29.148Z,1.70
2022-12-06T13:17:01.263Z,1.93
2022-12-06T13:19:34.561Z,2.17
2022-12-06T13:22:05.101Z,1.77
2022-12-06T13:24:38.871Z,1.87
2022-12-06T13:27:13.865Z,1.70
2022-12-06T13:29:46.656Z,1.93
2022-12-06T13:32:22.097Z,1.70
2022-12-06T13:34:51.813Z,2.17
2022-12-06T13:37:30.951Z,1.33
2022-12-06T13:40:02.415Z,1.40
2022-12-06T13:42:46.494Z,2.03
2022-12-06T13:45:41.227Z,1.70
2022-12-06T13:48:45.873Z,1.67
2022-12-06T13:51:45.115Z,2.27
2022-12-06T13:54:37.444Z,2.33
2022-12-06T13:57:28.779Z,2.00
2022-12-06T13:59:58.152Z,1.87
2022-12-06T14:02:53.458Z,2.57
2022-12-06T14:08:38.378Z,2.43
2022-12-06T14:11:21.048Z,3.23
2022-12-06T14:13:59.593Z,2.50
2022-12-06T14:16:32.774Z,2.83
2022-12-06T14:19:00.540Z,2.27
2022-12-06T14:21:31.987Z,3.17
2022-12-06T14:24:08.278Z,2.63
2022-12-06T14:26:43.523Z,2.60
2022-12-06T14:29:22.262Z,2.33
2022-12-06T14:31:52.199Z,2.60
2022-12-06T14:34:26.883Z,2.40
2022-12-06T14:36:54.905Z,9.80
2022-12-06T14:39:25.727Z,4.30
2022-12-06T14:42:12.967Z,3.53
2022-12-06T14:44:42.855Z,2.87
2022-12-06T14:47:15.566Z,3.13
2022-12-06T14:50:01.722Z,2.70
2022-12-06T14:52:32.421Z,3.17
2022-12-06T14:55:21.127Z,3.20
2022-12-06T14:57:56.597Z,4.17
2022-12-06T15:00:28.120Z,3.00
2022-12-06T15:03:16.090Z,10.70
2022-12-06T15:05:45.836Z,12.90
2022-12-06T15:08:32.210Z,4.47
2022-12-06T15:11:03.595Z,3.20
2022-12-06T15:13:30.538Z,3.60
2022-12-06T15:16:06.665Z,2.73
2022-12-06T15:18:57.238Z,2.57
2022-12-06T15:21:25.876Z,2.33
2022-12-06T15:23:55.054Z,2.50
2022-12-06T15:26:26.574Z,2.47
2022-12-06T15:28:54.110Z,2.20
2022-12-06T15:31:29.704Z,2.57
2022-12-06T15:33:57.739Z,2.80
2022-12-06T15:36:38.013Z,2.37
2022-12-06T15:39:12.210Z,3.77
2022-12-06T15:41:42.031Z,2.90
2022-12-06T15:44:17.252Z,2.70
2022-12-06T15:46:49.311Z,2.60
2022-12-06T15:49:18.816Z,2.70
2022-12-06T15:51:46.797Z,2.60
2022-12-06T15:54:17.574Z,3.03
2022-12-06T15:56:47.386Z,3.37
2022-12-06T15:59:16.052Z,3.00
2022-12-06T16:01:45.943Z,2.87
2022-12-06T16:04:15.823Z,3.20
2022-12-06T16:06:44.147Z,3.03
2022-12-06T16:09:12.633Z,3.53
2022-12-06T16:11:40.591Z,3.10
2022-12-06T16:14:11.667Z,3.30
2022-12-06T16:16:43.343Z,3.20
2022-12-06T16:19:12.219Z,3.50
2022-12-06T16:21:55.837Z,3.60
2022-12-06T16:24:45.445Z,3.23
2022-12-06T16:27:16.183Z,2.93
2022-12-06T16:29:58.993Z,3.50
2022-12-06T16:32:31.534Z,3.90
2022-12-06T16:35:02.356Z,3.40
2022-12-06T16:37:30.240Z,3.60
2022-12-06T16:39:57.875Z,4.30
2022-12-06T16:42:34.230Z,3.53
2022-12-06T16:45:03.800Z,3.93
2022-12-06T16:47:32.715Z,3.53
2022-12-06T16:50:00.959Z,3.80
2022-12-06T16:52:28.643Z,3.67
2022-12-06T16:54:59.012Z,3.57
2022-12-06T16:57:26.995Z,3.40
2022-12-06T16:59:54.608Z,3.63
2022-12-06T17:02:29.032Z,3.50
2022-12-06T17:05:00.850Z,3.30
2022-12-06T17:07:30.460Z,3.50
2022-12-06T17:09:58.392Z,3.30
2022-12-06T17:12:26.186Z,3.70
2022-12-06T17:14:53.847Z,3.70
2022-12-06T17:17:25.842Z,3.50
2022-12-06T17:19:57.183Z,3.60
2022-12-06T17:22:25.295Z,3.53
2022-12-06T17:24:52.868Z,3.57
2022-12-06T17:27:20.577Z,3.70
2022-12-06T17:29:48.676Z,3.90
2022-12-06T17:32:21.641Z,3.50
2022-12-06T17:34:49.802Z,4.10
2022-12-06T17:37:20.394Z,3.73
2022-12-06T17:39:49.120Z,3.83
2022-12-06T17:42:34.647Z,3.60
2022-12-06T17:45:03.427Z,3.20
2022-12-06T17:47:33.685Z,3.53
2022-12-06T17:50:01.769Z,3.80
2022-12-06T17:52:34.513Z,4.30
2022-12-06T17:55:02.687Z,4.23
2022-12-06T17:57:30.452Z,4.53
2022-12-06T17:59:59.119Z,3.80
2022-12-06T18:02:27.754Z,3.60
2022-12-06T18:04:56.454Z,4.20
2022-12-06T18:07:25.371Z,3.90
2022-12-06T18:09:54.433Z,5.00
2022-12-06T18:12:22.130Z,4.30
2022-12-06T18:14:49.818Z,6.10
2022-12-06T18:17:18.195Z,3.73
2022-12-06T18:19:49.441Z,3.70
2022-12-06T18:22:17.304Z,4.00
2022-12-06T18:24:45.373Z,3.73
2022-12-06T18:27:17.738Z,3.50
2022-12-06T18:29:45.889Z,4.03
2022-12-06T18:32:14.179Z,3.80
2022-12-06T18:34:42.710Z,4.13
2022-12-06T18:37:10.721Z,4.20
2022-12-06T18:39:38.587Z,4.03
2022-12-06T18:42:06.518Z,4.10
2022-12-06T18:44:36.034Z,3.87
2022-12-06T18:47:04.260Z,4.23
2022-12-06T18:49:32.232Z,4.03
2022-12-06T18:51:59.832Z,4.53
2022-12-06T18:54:28.268Z,3.93
2022-12-06T18:56:57.759Z,3.93
2022-12-06T18:59:27.754Z,3.90
2022-12-06T19:01:57.636Z,3.27
2022-12-06T19:04:26.322Z,4.20
2022-12-06T19:06:54.216Z,3.70
2022-12-06T19:09:24.545Z,3.63
2022-12-06T19:11:52.856Z,3.90
2022-12-06T19:14:21.101Z,3.77
2022-12-06T19:16:51.085Z,4.00
2022-12-06T19:19:22.489Z,3.80
2022-12-06T19:21:51.954Z,4.53
2022-12-06T19:24:22.502Z,4.20
2022-12-06T19:26:52.495Z,4.53
2022-12-06T19:29:20.568Z,4.63
2022-12-06T19:31:50.852Z,4.33
2022-12-06T19:34:21.943Z,3.87
2022-12-06T19:36:55.163Z,4.43
2022-12-06T19:39:23.874Z,4.20
2022-12-06T19:42:09.221Z,4.30
2022-12-06T19:44:38.960Z,4.23
2022-12-06T19:47:08.111Z,5.03
2022-12-06T19:49:37.893Z,4.83
2022-12-06T19:52:13.867Z,4.50
2022-12-06T19:54:43.939Z,4.60
2022-12-06T19:57:12.499Z,5.37
2022-12-06T19:59:40.294Z,5.27
2022-12-06T20:02:08.686Z,5.83
2022-12-06T20:04:40.069Z,5.23
2022-12-06T20:07:08.609Z,5.20
2022-12-06T20:09:36.259Z,5.47
2022-12-06T20:12:07.627Z,4.90
2022-12-06T20:14:40.303Z,5.13
2022-12-06T20:17:10.044Z,6.43
2022-12-06T20:19:39.711Z,5.13
2022-12-06T20:22:07.674Z,5.03
2022-12-06T20:24:36.097Z,5.97
2022-12-06T20:27:05.767Z,6.47
2022-12-06T20:29:33.739Z,4.57
2022-12-06T20:32:01.929Z,5.23
2022-12-06T20:34:34.403Z,5.70
2022-12-06T20:37:06.039Z,5.47
2022-12-06T20:39:35.737Z,6.00
2022-12-06T20:42:05.943Z,5.60
2022-12-06T20:44:34.239Z,6.23
2022-12-06T20:47:02.051Z,5.80
2022-12-06T20:49:31.019Z,5.97
2022-12-06T20:52:02.199Z,5.77
2022-12-06T20:54:31.519Z,6.73
2022-12-06T20:56:59.322Z,6.23
2022-12-06T20:59:27.121Z,6.73
2022-12-06T21:01:55.033Z,7.33
2022-12-06T21:04:22.958Z,6.97
2022-12-06T21:06:50.676Z,6.20
2022-12-06T21:09:18.346Z,7.70
2022-12-06T21:11:48.019Z,6.47
2022-12-06T21:14:17.250Z,6.70
2022-12-06T21:16:49.687Z,6.73
2022-12-06T21:19:19.689Z,6.60
2022-12-06T21:21:50.197Z,6.93
2022-12-06T21:24:20.475Z,6.50
2022-12-06T21:26:50.505Z,6.07
2022-12-06T21:29:20.845Z,6.33
2022-12-06T21:31:50.419Z,6.00
2022-12-06T21:34:18.894Z,5.10
2022-12-06T21:36:47.670Z,5.97
2022-12-06T21:39:16.306Z,6.17
2022-12-06T21:41:46.061Z,5.53
2022-12-06T21:44:16.655Z,6.30
2022-12-06T21:46:45.678Z,6.43
2022-12-06T21:49:13.404Z,6.00
2022-12-06T21:51:41.063Z,5.50
2022-12-06T21:54:09.974Z,5.77
2022-12-06T22:00:55.336Z,6.40
2022-12-06T22:06:38.028Z,6.60
2022-12-06T22:11:58.811Z,5.67
2022-12-06T22:14:26.769Z,6.97
2022-12-06T22:16:57.467Z,5.63
2022-12-06T22:19:30.071Z,5.90
2022-12-06T22:22:00.592Z,5.30
2022-12-06T22:24:28.955Z,5.83
2022-12-06T22:27:00.681Z,5.77
2022-12-06T22:29:37.973Z,5.97
2022-12-06T22:32:07.741Z,6.10
2022-12-06T22:34:37.284Z,6.53
2022-12-06T22:37:05.297Z,7.17
2022-12-06T22:39:34.484Z,7.33
2022-12-06T22:42:02.171Z,6.60
2022-12-06T22:44:33.090Z,6.50
2022-12-06T22:47:01.056Z,7.20
2022-12-06T22:49:31.143Z,5.83
2022-12-06T22:51:59.906Z,6.17
2022-12-06T22:54:27.812Z,6.03
2022-12-06T22:56:57.864Z,6.87
2022-12-06T22:59:33.269Z,5.00
2022-12-06T23:02:08.753Z,6.80
2022-12-06T23:04:38.163Z,6.17
2022-12-06T23:07:06.854Z,6.83
2022-12-06T23:09:36.015Z,6.40
2022-12-06T23:12:04.143Z,6.67
2022-12-06T23:14:32.297Z,6.30
2022-12-06T23:17:00.733Z,5.83
2022-12-06T23:19:28.873Z,6.00
2022-12-06T23:21:57.945Z,6.20
2022-12-06T23:24:25.634Z,5.23
2022-12-06T23:26:57.678Z,6.00
2022-12-06T23:29:26.201Z,5.93
2022-12-06T23:31:53.944Z,5.20
2022-12-06T23:34:26.246Z,6.40
2022-12-06T23:36:54.296Z,6.40
2022-12-06T23:39:23.365Z,6.27
2022-12-06T23:41:50.993Z,6.17
2022-12-06T23:44:18.902Z,5.77
2022-12-06T23:46:46.725Z,6.13
2022-12-06T23:49:17.804Z,5.13
2022-12-06T23:51:45.821Z,5.93
2022-12-06T23:54:14.584Z,7.30
2022-12-06T23:56:44.918Z,5.80
2022-12-06T23:59:14.931Z,5.80
